sensor_id;sensor_type;location;lat;lon;timestamp;pressure;altitude;pressure_sealevel;temperature;humidity
58239;BME280;44037;55.638;37.356;2023-03-13T00:00:49;97744.00;;;-4.79;100.00
58239;BME280;44037;55.638;37.356;2023-03-13T00:03:17;97744.13;;;-4.75;100.00
58239;BME280;44037;55.638;37.356;2023-03-13T00:05:44;97750.84;;;-4.76;100.00
58239;BME280;44037;55.638;37.356;2023-03-13T00:08:11;97748.25;;;-4.78;100.00
58239;BME280;44037;55.638;37.356;2023-03-13T00:10:40;97745.72;;;-4.78;100.00
58239;BME280;44037;55.638;37.356;2023-03-13T00:13:08;97747.41;;;-4.78;100.00
58239;BME280;44037;55.638;37.356;2023-03-13T00:15:35;97753.19;;;-4.81;100.00
58239;BME280;44037;55.638;37.356;2023-03-13T00:18:02;97745.44;;;-4.85;100.00
58239;BME280;44037;55.638;37.356;2023-03-13T00:20:29;97763.00;;;-4.88;100.00
58239;BME280;44037;55.638;37.356;2023-03-13T00:22:56;97762.75;;;-4.95;100.00
58239;BME280;44037;55.638;37.356;2023-03-13T00:25:24;97768.41;;;-5.00;100.00
58239;BME280;44037;55.638;37.356;2023-03-13T00:27:52;97769.91;;;-5.05;100.00
58239;BME280;44037;55.638;37.356;2023-03-13T00:30:19;97773.09;;;-5.10;100.00
58239;BME280;44037;55.638;37.356;2023-03-13T00:32:46;97782.25;;;-5.12;100.00
58239;BME280;44037;55.638;37.356;2023-03-13T00:35:14;97782.25;;;-5.12;100.00
58239;BME280;44037;55.638;37.356;2023-03-13T00:37:41;97789.91;;;-5.10;100.00
58239;BME280;44037;55.638;37.356;2023-03-13T00:40:09;97790.03;;;-5.07;100.00
58239;BME280;44037;55.638;37.356;2023-03-13T00:42:38;97795.22;;;-5.04;100.00
58239;BME280;44037;55.638;37.356;2023-03-13T00:45:07;97800.31;;;-5.02;100.00
58239;BME280;44037;55.638;37.356;2023-03-13T00:47:35;97804.66;;;-5.00;100.00
58239;BME280;44037;55.638;37.356;2023-03-13T00:50:02;97800.59;;;-4.96;100.00
58239;BME280;44037;55.638;37.356;2023-03-13T00:52:29;97800.78;;;-4.91;100.00
58239;BME280;44037;55.638;37.356;2023-03-13T00:54:56;97809.28;;;-4.89;100.00
58239;BME280;44037;55.638;37.356;2023-03-13T00:57:23;97810.13;;;-4.89;100.00
58239;BME280;44037;55.638;37.356;2023-03-13T00:59:50;97825.28;;;-4.89;100.00
58239;BME280;44037;55.638;37.356;2023-03-13T01:02:19;97832.81;;;-4.90;100.00
58239;BME280;44037;55.638;37.356;2023-03-13T01:04:46;97835.16;;;-4.95;100.00
58239;BME280;44037;55.638;37.356;2023-03-13T01:07:13;97838.22;;;-5.02;100.00
58239;BME280;44037;55.638;37.356;2023-03-13T01:09:40;97841.28;;;-5.10;100.00
58239;BME280;44037;55.638;37.356;2023-03-13T01:12:08;97844.38;;;-5.17;100.00
58239;BME280;44037;55.638;37.356;2023-03-13T01:14:35;97860.09;;;-5.22;100.00
58239;BME280;44037;55.638;37.356;2023-03-13T01:17:02;97854.06;;;-5.26;100.00
58239;BME280;44037;55.638;37.356;2023-03-13T01:19:30;97864.91;;;-5.29;100.00
58239;BME280;44037;55.638;37.356;2023-03-13T01:21:57;97869.66;;;-5.35;100.00
58239;BME280;44037;55.638;37.356;2023-03-13T01:24:24;97875.31;;;-5.41;100.00
58239;BME280;44037;55.638;37.356;2023-03-13T01:26:51;97881.09;;;-5.43;100.00
58239;BME280;44037;55.638;37.356;2023-03-13T01:29:18;97879.97;;;-5.50;100.00
58239;BME280;44037;55.638;37.356;2023-03-13T01:31:45;97889.13;;;-5.52;100.00
58239;BME280;44037;55.638;37.356;2023-03-13T01:34:13;97901.63;;;-5.55;100.00
58239;BME280;44037;55.638;37.356;2023-03-13T01:36:41;97896.50;;;-5.57;100.00
58239;BME280;44037;55.638;37.356;2023-03-13T01:39:08;97902.28;;;-5.59;100.00
58239;BME280;44037;55.638;37.356;2023-03-13T01:41:36;97905.53;;;-5.62;100.00
58239;BME280;44037;55.638;37.356;2023-03-13T01:44:03;97913.03;;;-5.63;100.00
58239;BME280;44037;55.638;37.356;2023-03-13T01:46:30;97917.00;;;-5.68;100.00
58239;BME280;44037;55.638;37.356;2023-03-13T01:48:59;97930.31;;;-5.71;100.00
58239;BME280;44037;55.638;37.356;2023-03-13T01:51:31;97928.47;;;-5.75;100.00
58239;BME280;44037;55.638;37.356;2023-03-13T01:54:04;97929.91;;;-5.80;100.00
58239;BME280;44037;55.638;37.356;2023-03-13T01:56:36;97939.84;;;-5.83;100.00
58239;BME280;44037;55.638;37.356;2023-03-13T01:59:08;97947.38;;;-5.85;100.00
58239;BME280;44037;55.638;37.356;2023-03-13T02:01:36;97947.22;;;-5.88;100.00
58239;BME280;44037;55.638;37.356;2023-03-13T02:04:04;97945.47;;;-5.89;100.00
58239;BME280;44037;55.638;37.356;2023-03-13T02:06:34;97955.44;;;-5.92;100.00
58239;BME280;44037;55.638;37.356;2023-03-13T02:09:07;97963.81;;;-5.93;100.00
58239;BME280;44037;55.638;37.356;2023-03-13T02:11:44;97968.84;;;-5.93;100.00
58239;BME280;44037;55.638;37.356;2023-03-13T02:14:14;97974.59;;;-5.96;100.00
58239;BME280;44037;55.638;37.356;2023-03-13T02:16:41;97973.75;;;-5.96;100.00
58239;BME280;44037;55.638;37.356;2023-03-13T02:19:17;97977.06;;;-5.97;100.00
58239;BME280;44037;55.638;37.356;2023-03-13T02:21:50;97984.69;;;-5.96;100.00
58239;BME280;44037;55.638;37.356;2023-03-13T02:24:28;97989.72;;;-5.96;100.00
58239;BME280;44037;55.638;37.356;2023-03-13T02:26:59;97988.00;;;-5.97;100.00
58239;BME280;44037;55.638;37.356;2023-03-13T02:29:26;97993.84;;;-5.98;100.00
58239;BME280;44037;55.638;37.356;2023-03-13T02:31:53;97997.25;;;-5.97;100.00
58239;BME280;44037;55.638;37.356;2023-03-13T02:34:25;98004.88;;;-5.96;100.00
58239;BME280;44037;55.638;37.356;2023-03-13T02:36:54;98014.88;;;-5.97;100.00
58239;BME280;44037;55.638;37.356;2023-03-13T02:39:23;98021.50;;;-6.01;100.00
58239;BME280;44037;55.638;37.356;2023-03-13T02:41:52;98023.13;;;-6.02;100.00
58239;BME280;44037;55.638;37.356;2023-03-13T02:44:21;98021.38;;;-6.03;100.00
58239;BME280;44037;55.638;37.356;2023-03-13T02:46:50;98034.88;;;-6.02;100.00
58239;BME280;44037;55.638;37.356;2023-03-13T02:49:23;98023.91;;;-6.03;100.00
58239;BME280;44037;55.638;37.356;2023-03-13T02:51:52;98042.34;;;-6.04;100.00
58239;BME280;44037;55.638;37.356;2023-03-13T02:54:22;98043.09;;;-6.06;100.00
58239;BME280;44037;55.638;37.356;2023-03-13T02:56:53;98041.56;;;-6.03;100.00
58239;BME280;44037;55.638;37.356;2023-03-13T02:59:23;98047.56;;;-6.00;100.00
58239;BME280;44037;55.638;37.356;2023-03-13T03:01:51;98045.94;;;-5.98;100.00
58239;BME280;44037;55.638;37.356;2023-03-13T03:04:19;98047.69;;;-5.97;100.00
58239;BME280;44037;55.638;37.356;2023-03-13T03:06:47;98052.78;;;-5.96;100.00
58239;BME280;44037;55.638;37.356;2023-03-13T03:09:14;98052.78;;;-5.96;100.00
58239;BME280;44037;55.638;37.356;2023-03-13T03:11:41;98068.66;;;-5.98;100.00
58239;BME280;44037;55.638;37.356;2023-03-13T03:14:09;98072.78;;;-6.00;100.00
58239;BME280;44037;55.638;37.356;2023-03-13T03:16:39;98069.41;;;-6.01;100.00
58239;BME280;44037;55.638;37.356;2023-03-13T03:19:06;98086.31;;;-5.98;100.00
58239;BME280;44037;55.638;37.356;2023-03-13T03:21:34;98083.78;;;-5.98;100.00
58239;BME280;44037;55.638;37.356;2023-03-13T03:24:01;98086.31;;;-5.98;100.00
58239;BME280;44037;55.638;37.356;2023-03-13T03:26:29;98089.66;;;-5.99;100.00
58239;BME280;44037;55.638;37.356;2023-03-13T03:28:56;98092.16;;;-5.99;100.00
58239;BME280;44037;55.638;37.356;2023-03-13T03:31:23;98095.47;;;-6.00;100.00
58239;BME280;44037;55.638;37.356;2023-03-13T03:33:51;98097.16;;;-6.01;100.00
58239;BME280;44037;55.638;37.356;2023-03-13T03:36:20;98098.06;;;-5.99;100.00
58239;BME280;44037;55.638;37.356;2023-03-13T03:38:48;98105.69;;;-5.97;100.00
58239;BME280;44037;55.638;37.356;2023-03-13T03:41:15;98102.28;;;-5.98;100.00
58239;BME280;44037;55.638;37.356;2023-03-13T03:43:44;98112.38;;;-5.98;100.00
58239;BME280;44037;55.638;37.356;2023-03-13T03:46:12;98120.03;;;-5.96;100.00
58239;BME280;44037;55.638;37.356;2023-03-13T03:48:39;98114.13;;;-5.97;100.00
58239;BME280;44037;55.638;37.356;2023-03-13T03:51:08;98120.03;;;-5.96;100.00
58239;BME280;44037;55.638;37.356;2023-03-13T03:53:35;98124.38;;;-5.94;100.00
58239;BME280;44037;55.638;37.356;2023-03-13T03:56:03;98124.47;;;-5.92;100.00
58239;BME280;44037;55.638;37.356;2023-03-13T03:58:31;98128.63;;;-5.93;100.00
58239;BME280;44037;55.638;37.356;2023-03-13T04:00:58;98137.06;;;-5.92;100.00
58239;BME280;44037;55.638;37.356;2023-03-13T04:03:26;98138.66;;;-5.94;100.00
58239;BME280;44037;55.638;37.356;2023-03-13T04:05:53;98137.88;;;-5.93;100.00
58239;BME280;44037;55.638;37.356;2023-03-13T04:08:22;98151.16;;;-5.96;100.00
58239;BME280;44037;55.638;37.356;2023-03-13T04:10:49;98154.06;;;-5.88;100.00
58239;BME280;44037;55.638;37.356;2023-03-13T04:13:16;98149.75;;;-5.91;100.00
58239;BME280;44037;55.638;37.356;2023-03-13T04:15:43;98158.97;;;-5.91;100.00
58239;BME280;44037;55.638;37.356;2023-03-13T04:18:10;98159.91;;;-5.89;100.00
58239;BME280;44037;55.638;37.356;2023-03-13T04:20:37;98163.38;;;-5.87;100.00
58239;BME280;44037;55.638;37.356;2023-03-13T04:23:04;98167.00;;;-5.82;100.00
58239;BME280;44037;55.638;37.356;2023-03-13T04:25:32;98171.28;;;-5.81;100.00
58239;BME280;44037;55.638;37.356;2023-03-13T04:28:00;98176.38;;;-5.79;100.00
58239;BME280;44037;55.638;37.356;2023-03-13T04:30:27;98178.84;;;-5.81;100.00
58239;BME280;44037;55.638;37.356;2023-03-13T04:32:54;98186.41;;;-5.81;100.00
58239;BME280;44037;55.638;37.356;2023-03-13T04:35:21;98197.53;;;-5.77;100.00
58239;BME280;44037;55.638;37.356;2023-03-13T04:37:48;98200.84;;;-5.78;100.00
58239;BME280;44037;55.638;37.356;2023-03-13T04:40:15;98202.56;;;-5.77;100.00
58239;BME280;44037;55.638;37.356;2023-03-13T04:42:43;98219.44;;;-5.76;100.00
58239;BME280;44037;55.638;37.356;2023-03-13T04:45:11;98225.44;;;-5.74;100.00
58239;BME280;44037;55.638;37.356;2023-03-13T04:47:39;98231.41;;;-5.72;100.00
58239;BME280;44037;55.638;37.356;2023-03-13T04:50:06;98231.34;;;-5.74;100.00
58239;BME280;44037;55.638;37.356;2023-03-13T04:52:33;98244.13;;;-5.71;100.00
58239;BME280;44037;55.638;37.356;2023-03-13T04:55:00;98240.88;;;-5.68;100.00
58239;BME280;44037;55.638;37.356;2023-03-13T04:57:29;98231.97;;;-5.61;100.00
58239;BME280;44037;55.638;37.356;2023-03-13T04:59:57;98233.31;;;-5.51;100.00
58239;BME280;44037;55.638;37.356;2023-03-13T05:02:25;98235.31;;;-5.44;100.00
58239;BME280;44037;55.638;37.356;2023-03-13T05:04:52;98240.75;;;-5.36;100.00
58239;BME280;44037;55.638;37.356;2023-03-13T05:07:19;98250.44;;;-5.28;100.00
58239;BME280;44037;55.638;37.356;2023-03-13T05:09:46;98249.00;;;-5.22;100.00
58239;BME280;44037;55.638;37.356;2023-03-13T05:12:13;98255.22;;;-5.16;100.00
58239;BME280;44037;55.638;37.356;2023-03-13T05:14:40;98253.97;;;-5.07;100.00
58239;BME280;44037;55.638;37.356;2023-03-13T05:17:08;98252.66;;;-4.99;100.00
58239;BME280;44037;55.638;37.356;2023-03-13T05:19:37;98257.34;;;-4.89;100.00
58239;BME280;44037;55.638;37.356;2023-03-13T05:22:04;98264.53;;;-4.80;100.00
58239;BME280;44037;55.638;37.356;2023-03-13T05:24:31;98261.63;;;-4.70;100.00
58239;BME280;44037;55.638;37.356;2023-03-13T05:26:58;98271.31;;;-4.61;100.00
58239;BME280;44037;55.638;37.356;2023-03-13T05:29:25;98266.69;;;-4.52;100.00
58239;BME280;44037;55.638;37.356;2023-03-13T05:31:52;98279.63;;;-4.45;100.00
58239;BME280;44037;55.638;37.356;2023-03-13T05:34:21;98284.97;;;-4.39;100.00
58239;BME280;44037;55.638;37.356;2023-03-13T05:36:48;98279.41;;;-4.32;100.00
58239;BME280;44037;55.638;37.356;2023-03-13T05:39:15;98283.25;;;-4.22;100.00
58239;BME280;44037;55.638;37.356;2023-03-13T05:41:42;98286.31;;;-4.10;100.00
58239;BME280;44037;55.638;37.356;2023-03-13T05:44:09;98290.25;;;-3.97;100.00
58239;BME280;44037;55.638;37.356;2023-03-13T05:46:36;98291.19;;;-3.95;100.00
58239;BME280;44037;55.638;37.356;2023-03-13T05:49:03;98291.91;;;-3.79;100.00
58239;BME280;44037;55.638;37.356;2023-03-13T05:51:32;98290.69;;;-3.68;100.00
58239;BME280;44037;55.638;37.356;2023-03-13T05:53:59;98288.69;;;-3.56;100.00
58239;BME280;44037;55.638;37.356;2023-03-13T05:56:26;98287.56;;;-3.43;100.00
58239;BME280;44037;55.638;37.356;2023-03-13T05:58:53;98293.09;;;-3.32;100.00
58239;BME280;44037;55.638;37.356;2023-03-13T06:01:20;98296.00;;;-3.22;100.00
58239;BME280;44037;55.638;37.356;2023-03-13T06:03:47;98300.47;;;-3.17;100.00
58239;BME280;44037;55.638;37.356;2023-03-13T06:06:14;98298.91;;;-3.13;100.00
58239;BME280;44037;55.638;37.356;2023-03-13T06:08:42;98306.03;;;-3.04;100.00
58239;BME280;44037;55.638;37.356;2023-03-13T06:11:09;98312.22;;;-2.98;100.00
58239;BME280;44037;55.638;37.356;2023-03-13T06:13:36;98312.50;;;-2.91;100.00
58239;BME280;44037;55.638;37.356;2023-03-13T06:16:04;98310.22;;;-2.85;100.00
58239;BME280;44037;55.638;37.356;2023-03-13T06:18:31;98318.09;;;-2.79;100.00
58239;BME280;44037;55.638;37.356;2023-03-13T06:21:00;98317.50;;;-2.72;100.00
58239;BME280;44037;55.638;37.356;2023-03-13T06:23:27;98323.75;;;-2.64;100.00
58239;BME280;44037;55.638;37.356;2023-03-13T06:25:56;98336.03;;;-2.53;100.00
58239;BME280;44037;55.638;37.356;2023-03-13T06:28:23;98335.44;;;-2.46;100.00
58239;BME280;44037;55.638;37.356;2023-03-13T06:30:50;98341.75;;;-2.36;100.00
58239;BME280;44037;55.638;37.356;2023-03-13T06:33:17;98349.78;;;-2.25;100.00
58239;BME280;44037;55.638;37.356;2023-03-13T06:35:44;98345.09;;;-2.16;100.00
58239;BME280;44037;55.638;37.356;2023-03-13T06:38:11;98346.38;;;-2.05;100.00
58239;BME280;44037;55.638;37.356;2023-03-13T06:40:38;98352.13;;;-2.09;100.00
58239;BME280;44037;55.638;37.356;2023-03-13T06:43:07;98357.03;;;-2.13;100.00
58239;BME280;44037;55.638;37.356;2023-03-13T06:45:34;98352.78;;;-2.13;100.00
58239;BME280;44037;55.638;37.356;2023-03-13T06:48:02;98360.72;;;-2.05;100.00
58239;BME280;44037;55.638;37.356;2023-03-13T06:50:29;98359.44;;;-1.94;100.00
58239;BME280;44037;55.638;37.356;2023-03-13T06:52:56;98371.19;;;-1.75;100.00
58239;BME280;44037;55.638;37.356;2023-03-13T06:55:23;98368.47;;;-1.57;100.00
58239;BME280;44037;55.638;37.356;2023-03-13T06:57:51;98371.81;;;-1.35;100.00
58239;BME280;44037;55.638;37.356;2023-03-13T07:00:20;98374.44;;;-1.08;100.00
58239;BME280;44037;55.638;37.356;2023-03-13T07:02:47;98381.31;;;-0.81;100.00
58239;BME280;44037;55.638;37.356;2023-03-13T07:05:16;98384.47;;;-0.62;100.00
58239;BME280;44037;55.638;37.356;2023-03-13T07:07:43;98386.75;;;-0.44;100.00
58239;BME280;44037;55.638;37.356;2023-03-13T07:10:10;98385.38;;;-0.34;100.00
58239;BME280;44037;55.638;37.356;2023-03-13T07:12:38;98387.25;;;-0.28;100.00
58239;BME280;44037;55.638;37.356;2023-03-13T07:15:06;98389.50;;;-0.12;100.00
58239;BME280;44037;55.638;37.356;2023-03-13T07:17:34;98396.19;;;0.13;100.00
58239;BME280;44037;55.638;37.356;2023-03-13T07:20:03;98393.41;;;0.33;100.00
58239;BME280;44037;55.638;37.356;2023-03-13T07:22:31;98398.44;;;0.60;100.00
58239;BME280;44037;55.638;37.356;2023-03-13T07:24:58;98410.13;;;0.83;100.00
58239;BME280;44037;55.638;37.356;2023-03-13T07:27:26;98411.25;;;0.93;100.00
58239;BME280;44037;55.638;37.356;2023-03-13T07:29:53;98418.00;;;0.90;100.00
58239;BME280;44037;55.638;37.356;2023-03-13T07:32:20;98426.69;;;0.97;100.00
58239;BME280;44037;55.638;37.356;2023-03-13T07:34:48;98425.41;;;1.12;100.00
58239;BME280;44037;55.638;37.356;2023-03-13T07:37:15;98423.41;;;1.33;100.00
58239;BME280;44037;55.638;37.356;2023-03-13T07:39:43;98429.78;;;1.49;100.00
58239;BME280;44037;55.638;37.356;2023-03-13T07:42:10;98440.31;;;1.62;100.00
58239;BME280;44037;55.638;37.356;2023-03-13T07:44:38;98442.97;;;1.66;100.00
58239;BME280;44037;55.638;37.356;2023-03-13T07:47:05;98442.25;;;1.71;100.00
58239;BME280;44037;55.638;37.356;2023-03-13T07:49:32;98440.69;;;1.76;100.00
58239;BME280;44037;55.638;37.356;2023-03-13T07:52:05;98452.91;;;1.89;100.00
58239;BME280;44037;55.638;37.356;2023-03-13T07:54:32;98445.78;;;2.11;100.00
58239;BME280;44037;55.638;37.356;2023-03-13T07:57:00;98452.75;;;2.18;100.00
58239;BME280;44037;55.638;37.356;2023-03-13T07:59:28;98454.41;;;2.16;100.00
58239;BME280;44037;55.638;37.356;2023-03-13T08:01:55;98451.63;;;2.07;100.00
58239;BME280;44037;55.638;37.356;2023-03-13T08:04:22;98453.25;;;2.03;100.00
58239;BME280;44037;55.638;37.356;2023-03-13T08:06:49;98458.47;;;2.08;100.00
58239;BME280;44037;55.638;37.356;2023-03-13T08:09:18;98451.06;;;2.19;100.00
58239;BME280;44037;55.638;37.356;2023-03-13T08:11:45;98452.28;;;2.35;100.00
58239;BME280;44037;55.638;37.356;2023-03-13T08:14:13;98453.25;;;2.40;100.00
58239;BME280;44037;55.638;37.356;2023-03-13T08:16:40;98451.75;;;2.48;100.00
58239;BME280;44037;55.638;37.356;2023-03-13T08:19:08;98457.47;;;2.38;100.00
58239;BME280;44037;55.638;37.356;2023-03-13T08:21:36;98462.03;;;2.13;100.00
58239;BME280;44037;55.638;37.356;2023-03-13T08:24:06;98456.16;;;1.83;100.00
58239;BME280;44037;55.638;37.356;2023-03-13T08:26:36;98467.25;;;1.50;100.00
58239;BME280;44037;55.638;37.356;2023-03-13T08:29:06;98465.47;;;1.16;100.00
58239;BME280;44037;55.638;37.356;2023-03-13T08:31:35;98470.91;;;0.98;100.00
58239;BME280;44037;55.638;37.356;2023-03-13T08:34:02;98482.19;;;0.75;100.00
58239;BME280;44037;55.638;37.356;2023-03-13T08:36:31;98481.47;;;0.52;100.00
58239;BME280;44037;55.638;37.356;2023-03-13T08:39:00;98486.75;;;0.58;100.00
58239;BME280;44037;55.638;37.356;2023-03-13T08:41:29;98493.22;;;0.74;100.00
58239;BME280;44037;55.638;37.356;2023-03-13T08:43:59;98493.53;;;1.16;100.00
58239;BME280;44037;55.638;37.356;2023-03-13T08:46:28;98483.97;;;1.39;100.00
58239;BME280;44037;55.638;37.356;2023-03-13T08:48:55;98499.38;;;1.42;100.00
58239;BME280;44037;55.638;37.356;2023-03-13T08:51:24;98503.63;;;1.74;100.00
58239;BME280;44037;55.638;37.356;2023-03-13T08:53:52;98492.50;;;2.05;100.00
58239;BME280;44037;55.638;37.356;2023-03-13T08:56:23;98501.00;;;2.06;100.00
58239;BME280;44037;55.638;37.356;2023-03-13T08:58:52;98493.50;;;2.12;100.00
58239;BME280;44037;55.638;37.356;2023-03-13T09:01:21;98501.09;;;2.09;100.00
58239;BME280;44037;55.638;37.356;2023-03-13T09:03:49;98511.16;;;2.03;100.00
58239;BME280;44037;55.638;37.356;2023-03-13T09:06:16;98517.66;;;1.91;100.00
58239;BME280;44037;55.638;37.356;2023-03-13T09:08:43;98518.81;;;1.69;100.00
58239;BME280;44037;55.638;37.356;2023-03-13T09:11:12;98520.25;;;1.59;100.00
58239;BME280;44037;55.638;37.356;2023-03-13T09:13:41;98520.75;;;1.46;100.00
58239;BME280;44037;55.638;37.356;2023-03-13T09:16:10;98529.13;;;1.42;100.00
58239;BME280;44037;55.638;37.356;2023-03-13T09:18:39;98524.31;;;1.51;100.00
58239;BME280;44037;55.638;37.356;2023-03-13T09:21:08;98513.88;;;1.77;100.00
58239;BME280;44037;55.638;37.356;2023-03-13T09:23:35;98535.41;;;1.85;100.00
58239;BME280;44037;55.638;37.356;2023-03-13T09:26:03;98534.81;;;1.95;100.00
58239;BME280;44037;55.638;37.356;2023-03-13T09:28:31;98537.16;;;2.20;98.61
58239;BME280;44037;55.638;37.356;2023-03-13T09:31:05;98538.63;;;2.11;97.54
58239;BME280;44037;55.638;37.356;2023-03-13T09:33:32;98550.81;;;2.22;99.58
58239;BME280;44037;55.638;37.356;2023-03-13T09:36:00;98549.16;;;2.24;99.53
58239;BME280;44037;55.638;37.356;2023-03-13T09:38:28;98554.75;;;2.44;100.00
58239;BME280;44037;55.638;37.356;2023-03-13T09:41:01;98545.81;;;2.61;99.27
58239;BME280;44037;55.638;37.356;2023-03-13T09:43:38;98546.25;;;2.43;100.00
58239;BME280;44037;55.638;37.356;2023-03-13T09:46:12;98547.91;;;2.43;100.00
58239;BME280;44037;55.638;37.356;2023-03-13T09:48:44;98553.13;;;2.48;100.00
58239;BME280;44037;55.638;37.356;2023-03-13T09:51:17;98558.06;;;2.75;100.00
58239;BME280;44037;55.638;37.356;2023-03-13T09:53:50;98545.94;;;3.06;98.46
58239;BME280;44037;55.638;37.356;2023-03-13T09:56:22;98554.53;;;3.10;94.56
58239;BME280;44037;55.638;37.356;2023-03-13T09:58:53;98564.22;;;2.83;97.34
58239;BME280;44037;55.638;37.356;2023-03-13T10:01:25;98572.69;;;2.81;95.87
58239;BME280;44037;55.638;37.356;2023-03-13T10:04:00;98575.88;;;2.70;95.37
58239;BME280;44037;55.638;37.356;2023-03-13T10:06:34;98571.31;;;2.58;94.54
58239;BME280;44037;55.638;37.356;2023-03-13T10:09:12;98578.53;;;2.40;95.74
58239;BME280;44037;55.638;37.356;2023-03-13T10:11:43;98581.25;;;2.12;96.08
58239;BME280;44037;55.638;37.356;2023-03-13T10:14:15;98581.34;;;1.83;97.37
58239;BME280;44037;55.638;37.356;2023-03-13T10:16:48;98580.94;;;1.68;97.82
58239;BME280;44037;55.638;37.356;2023-03-13T10:19:18;98587.38;;;1.55;97.12
58239;BME280;44037;55.638;37.356;2023-03-13T10:21:51;98597.06;;;1.36;95.60
58239;BME280;44037;55.638;37.356;2023-03-13T10:24:29;98596.41;;;1.15;95.64
58239;BME280;44037;55.638;37.356;2023-03-13T10:26:58;98603.41;;;0.93;94.50
58239;BME280;44037;55.638;37.356;2023-03-13T10:29:26;98613.22;;;0.81;92.69
58239;BME280;44037;55.638;37.356;2023-03-13T10:31:56;98616.06;;;0.63;94.37
58239;BME280;44037;55.638;37.356;2023-03-13T10:34:24;98611.38;;;0.76;96.39
58239;BME280;44037;55.638;37.356;2023-03-13T10:36:58;98621.28;;;0.93;96.83
58239;BME280;44037;55.638;37.356;2023-03-13T10:39:27;98615.50;;;0.99;96.94
58239;BME280;44037;55.638;37.356;2023-03-13T10:42:08;98625.38;;;0.88;93.53
58239;BME280;44037;55.638;37.356;2023-03-13T10:44:36;98629.56;;;0.86;94.66
58239;BME280;44037;55.638;37.356;2023-03-13T10:47:03;98637.41;;;0.66;89.77
58239;BME280;44037;55.638;37.356;2023-03-13T10:49:31;98637.38;;;0.65;91.40
58239;BME280;44037;55.638;37.356;2023-03-13T10:52:02;98648.56;;;0.70;92.46
58239;BME280;44037;55.638;37.356;2023-03-13T10:54:33;98646.69;;;0.64;92.30
58239;BME280;44037;55.638;37.356;2023-03-13T10:57:18;98646.41;;;0.55;91.29
58239;BME280;44037;55.638;37.356;2023-03-13T10:59:48;98647.09;;;0.51;92.10
58239;BME280;44037;55.638;37.356;2023-03-13T11:02:22;98654.16;;;0.58;93.97
58239;BME280;44037;55.638;37.356;2023-03-13T11:04:51;98652.94;;;0.72;94.87
58239;BME280;44037;55.638;37.356;2023-03-13T11:07:28;98653.22;;;0.82;95.13
58239;BME280;44037;55.638;37.356;2023-03-13T11:10:00;98658.28;;;0.80;95.16
58239;BME280;44037;55.638;37.356;2023-03-13T11:12:33;98658.22;;;0.79;93.40
58239;BME280;44037;55.638;37.356;2023-03-13T11:15:01;98671.22;;;0.86;92.40
58239;BME280;44037;55.638;37.356;2023-03-13T11:17:34;98675.25;;;0.80;92.05
58239;BME280;44037;55.638;37.356;2023-03-13T11:20:13;98675.78;;;0.69;87.90
58239;BME280;44037;55.638;37.356;2023-03-13T11:23:00;98670.31;;;0.58;89.99
58239;BME280;44037;55.638;37.356;2023-03-13T11:25:34;98676.38;;;0.36;86.29
58239;BME280;44037;55.638;37.356;2023-03-13T11:28:20;98673.03;;;0.13;88.85
58239;BME280;44037;55.638;37.356;2023-03-13T11:31:02;98679.38;;;0.00;90.08
58239;BME280;44037;55.638;37.356;2023-03-13T11:33:39;98679.75;;;-0.13;92.26
58239;BME280;44037;55.638;37.356;2023-03-13T11:36:20;98691.47;;;-0.17;94.27
58239;BME280;44037;55.638;37.356;2023-03-13T11:38:54;98687.72;;;-0.04;91.11
58239;BME280;44037;55.638;37.356;2023-03-13T11:41:36;98702.34;;;0.02;91.91
58239;BME280;44037;55.638;37.356;2023-03-13T11:44:17;98698.16;;;0.04;88.82
58239;BME280;44037;55.638;37.356;2023-03-13T11:46:54;98709.00;;;-0.02;89.50
58239;BME280;44037;55.638;37.356;2023-03-13T11:49:35;98712.19;;;0.17;87.15
58239;BME280;44037;55.638;37.356;2023-03-13T11:52:14;98714.03;;;0.45;90.24
58239;BME280;44037;55.638;37.356;2023-03-13T11:55:02;98715.34;;;0.58;91.97
58239;BME280;44037;55.638;37.356;2023-03-13T11:57:42;98723.72;;;0.80;90.39
58239;BME280;44037;55.638;37.356;2023-03-13T12:00:29;98718.75;;;0.84;90.84
58239;BME280;44037;55.638;37.356;2023-03-13T12:03:01;98718.75;;;0.84;91.49
58239;BME280;44037;55.638;37.356;2023-03-13T12:05:37;98724.00;;;0.89;91.13
58239;BME280;44037;55.638;37.356;2023-03-13T12:08:10;98722.94;;;0.82;91.70
58239;BME280;44037;55.638;37.356;2023-03-13T12:10:46;98725.03;;;0.68;92.32
58239;BME280;44037;55.638;37.356;2023-03-13T12:13:20;98718.16;;;0.41;91.00
58239;BME280;44037;55.638;37.356;2023-03-13T12:15:51;98729.22;;;0.18;90.79
58239;BME280;44037;55.638;37.356;2023-03-13T12:18:24;98734.75;;;0.06;90.92
58239;BME280;44037;55.638;37.356;2023-03-13T12:20:59;98739.66;;;0.01;90.75
58239;BME280;44037;55.638;37.356;2023-03-13T12:23:39;98736.66;;;-0.11;93.10
58239;BME280;44037;55.638;37.356;2023-03-13T12:26:13;98743.41;;;-0.13;95.00
58239;BME280;44037;55.638;37.356;2023-03-13T12:28:43;98747.72;;;-0.11;93.94
58239;BME280;44037;55.638;37.356;2023-03-13T12:31:20;98738.47;;;-0.09;94.54
58239;BME280;44037;55.638;37.356;2023-03-13T12:33:53;98747.03;;;-0.07;93.86
58239;BME280;44037;55.638;37.356;2023-03-13T12:36:26;98754.59;;;-0.08;94.21
58239;BME280;44037;55.638;37.356;2023-03-13T12:38:57;98752.69;;;0.09;94.46
58239;BME280;44037;55.638;37.356;2023-03-13T12:41:34;98748.84;;;0.20;93.60
58239;BME280;44037;55.638;37.356;2023-03-13T12:44:08;98758.22;;;0.44;93.52
58239;BME280;44037;55.638;37.356;2023-03-13T12:46:43;98748.25;;;0.52;86.68
58239;BME280;44037;55.638;37.356;2023-03-13T12:49:34;98763.31;;;0.44;83.66
58239;BME280;44037;55.638;37.356;2023-03-13T12:55:39;98754.88;;;0.47;85.45
58239;BME280;44037;55.638;37.356;2023-03-13T13:01:02;98758.94;;;0.41;85.38
58239;BME280;44037;55.638;37.356;2023-03-13T13:03:32;98754.66;;;0.16;85.63